DW1139 Weather Reports


Display with metric or nautical units.
time (UTC)temp
F
wind
direction
speed
MPH
gust
MPH
rain 1hr
in
rain 24hr
in
rain mn
in
humidity
%
barometer
mb
20240227044550 57 191 3.0 7.0 0.00 0.00 0.00 71 1018.7
20240227044045 57 194 2.0 5.0 0.00 0.00 0.00 71 1018.7
20240227043547 57 209 1.0 5.0 0.00 0.00 0.00 70 1018.8
20240227043049 57 173 1.0 5.0 0.00 0.00 0.00 70 1018.7
20240227042545 57 189 2.0 6.0 0.00 0.00 0.00 69 1018.6
20240227042044 58 176 2.0 6.0 0.00 0.00 0.00 69 1018.6
20240227041548 58 156 3.0 6.0 0.00 0.00 0.00 68 1018.6
20240227041043 58 163 3.0 7.0 0.00 0.00 0.00 68 1018.7
20240227040548 58 170 4.0 9.0 0.00 0.00 0.00 68 1018.8
20240227040055 58 211 4.0 9.0 0.00 0.00 0.00 67 1018.7
20240227035544 58 182 4.0 8.0 0.00 0.00 0.00 68 1018.7
20240227035044 58 173 3.0 9.0 0.00 0.00 0.00 67 1018.9
20240227034553 58 161 4.0 9.0 0.00 0.00 0.00 66 1018.9
20240227034044 58 167 4.0 9.0 0.00 0.00 0.00 66 1018.8
20240227033544 58 185 4.0 8.0 0.00 0.00 0.00 65 1018.9
20240227033107 58 155 3.0 8.0 0.00 0.00 0.00 65 1018.9
20240227032543 58 162 3.0 9.0 0.00 0.00 0.00 64 1018.7
20240227032047 59 164 4.0 9.0 0.00 0.00 0.00 63 1018.8
20240227031551 58 142 3.0 8.0 0.00 0.00 0.00 63 1018.9
20240227031046 58 154 4.0 10.0 0.00 0.00 0.00 62 1019.2
20240227030548 58 188 5.0 10.0 0.00 0.00 0.00 62 1019.3
20240227030059 57 168 2.0 6.0 0.00 0.00 0.00 61 1019.2
20240227025545 56 173 3.0 7.0 0.00 0.00 0.00 61 1019.1
20240227025046 55 171 2.0 7.0 0.00 0.00 0.00 63 1019.1
20240227024555 53 190 3.0 7.0 0.00 0.00 0.00 66 1019.2
20240227024046 50 167 2.0 6.0 0.00 0.00 0.00 68 1018.9
20240227023549 50 172 2.0 5.0 0.00 0.00 0.00 71 1018.8
20240227023047 48 183 1.0 5.0 0.00 0.00 0.00 74 1018.8
20240227022544 48 173 1.0 3.0 0.00 0.00 0.00 75 1018.9
20240227022045 48 174 0.0 0.0 0.00 0.00 0.00 75 1018.7
20240227021550 48 0 0.0 0.0 0.00 0.00 0.00 73 1018.7
20240227021044 49 0 0.0 0.0 0.00 0.00 0.00 72 1018.9
20240227020544 49 0 0.0 0.0 0.00 0.00 0.00 73 1018.8
20240227020046 49 0 0.0 0.0 0.00 0.00 0.00 72 1018.7
20240227015544 49 0 0.0 1.0 0.00 0.00 0.00 70 1018.7
20240227015044 49 0 0.0 1.0 0.00 0.00 0.00 72 1018.7
20240227014552 50 0 0.0 0.0 0.00 0.00 0.00 73 1018.6
20240227014045 50 0 0.0 1.0 0.00 0.00 0.00 72 1018.5
20240227013549 50 0 0.0 2.0 0.00 0.00 0.00 71 1018.3
20240227013121 50 0 0.0 2.0 0.00 0.00 0.00 71 1018.3
20240227012545 50 180 0.0 2.0 0.00 0.00 0.00 71 1018.1
20240227012043 51 172 0.0 1.0 0.00 0.00 0.00 71 1017.9
20240227011547 51 0 0.0 1.0 0.00 0.00 0.00 72 1017.8
20240227011043 51 0 0.0 1.0 0.00 0.00 0.00 70 1017.8
20240227010546 51 0 0.0 1.0 0.00 0.00 0.00 70 1017.8
20240227010053 51 0 0.0 1.0 0.00 0.00 0.00 71 1017.8
20240227005547 51 0 0.0 1.0 0.00 0.00 0.00 71 1017.9
20240227005047 52 0 0.0 0.0 0.00 0.00 0.00 70 1017.9
20240227004553 52 0 0.0 0.0 0.00 0.00 0.00 70 1018.0
20240227004045 52 0 0.0 0.0 0.00 0.00 0.00 67 1018.0
20240227003545 52 0 0.0 0.0 0.00 0.00 0.00 66 1018.1
20240227003051 53 0 0.0 1.0 0.00 0.00 0.00 67 1018.2
20240227002544 54 0 0.0 2.0 0.00 0.00 0.00 65 1018.4
20240227002044 54 0 0.0 2.0 0.00 0.00 0.00 63 1018.4
20240227001554 55 0 0.0 2.0 0.00 0.00 0.00 62 1018.4
20240227001044 55 172 1.0 3.0 0.00 0.00 0.00 61 1018.4
20240227000546 56 171 1.0 3.0 0.00 0.00 0.00 60 1018.4
20240227000049 56 161 0.0 2.0 0.00 0.00 0.00 58 1018.4
20240226235545 56 161 0.0 2.0 0.00 0.00 0.00 60 1018.3
20240226235045 57 0 0.0 2.0 0.00 0.00 0.00 56 1018.3
20240226234546 58 161 0.0 2.0 0.00 0.00 0.00 53 1018.3
20240226234045 59 161 1.0 2.0 0.00 0.00 0.00 52 1018.3
20240226233545 60 161 1.0 2.0 0.00 0.00 0.00 50 1018.5
20240226233051 61 161 0.0 2.0 0.00 0.00 0.00 50 1018.4
20240226232545 62 161 0.0 2.0 0.00 0.00 0.00 46 1018.3
20240226232044 63 164 1.0 5.0 0.00 0.00 0.00 44 1018.3
20240226231557 64 0 1.0 5.0 0.00 0.00 0.00 42 1018.3
20240226231045 66 153 1.0 5.0 0.00 0.00 0.00 39 1018.3
20240226230544 67 153 1.0 6.0 0.00 0.00 0.00 36 1018.2
20240226230056 67 147 2.0 6.0 0.00 0.00 0.00 35 1018.3
20240226225544 68 178 2.0 8.0 0.00 0.00 0.00 35 1018.3
20240226225045 68 159 3.0 9.0 0.00 0.00 0.00 34 1018.2
20240226224600 69 168 4.0 9.0 0.00 0.00 0.00 33 1018.3
20240226224046 69 153 4.0 9.0 0.00 0.00 0.00 32 1018.3
20240226223544 69 180 2.0 11.0 0.00 0.00 0.00 33 1018.3
20240226223055 70 161 3.0 11.0 0.00 0.00 0.00 32 1018.4
20240226222545 70 175 4.0 10.0 0.00 0.00 0.00 30 1018.4
20240226222045 70 152 3.0 11.0 0.00 0.00 0.00 31 1018.4
20240226221555 71 190 5.0 11.0 0.00 0.00 0.00 29 1018.3
20240226221046 71 118 5.0 11.0 0.00 0.00 0.00 31 1018.4
20240226220546 71 175 3.0 9.0 0.00 0.00 0.00 30 1018.3
20240226220058 71 196 3.0 9.0 0.00 0.00 0.00 31 1018.3
20240226215546 72 153 3.0 12.0 0.00 0.00 0.00 28 1018.3
20240226215045 71 165 5.0 12.0 0.00 0.00 0.00 29 1018.4
20240226214601 72 178 5.0 12.0 0.00 0.00 0.00 28 1018.4
20240226214046 72 144 6.0 12.0 0.00 0.00 0.00 30 1018.5
20240226213545 72 137 3.0 13.0 0.00 0.00 0.00 29 1018.6
20240226213103 72 167 6.0 13.0 0.00 0.00 0.00 29 1018.7
20240226212545 72 159 7.0 13.0 0.00 0.00 0.00 28 1018.7
20240226212047 72 145 5.0 11.0 0.00 0.00 0.00 29 1018.7
20240226211554 72 157 4.0 13.0 0.00 0.00 0.00 29 1018.7
20240226211050 72 175 8.0 13.0 0.00 0.00 0.00 30 1018.8
20240226210545 73 137 5.0 9.0 0.00 0.00 0.00 28 1018.8
20240226210057 73 152 1.0 12.0 0.00 0.00 0.00 29 1018.8
20240226205544 72 108 6.0 12.0 0.00 0.00 0.00 30 1018.9
20240226205046 72 191 5.0 13.0 0.00 0.00 0.00 29 1018.8
20240226204605 72 127 5.0 13.0 0.00 0.00 0.00 29 1018.8
20240226204045 72 160 5.0 11.0 0.00 0.00 0.00 29 1018.7
20240226203546 73 140 3.0 10.0 0.00 0.00 0.00 30 1018.7
20240226203103 73 145 5.0 10.0 0.00 0.00 0.00 27 1018.7
20240226202546 73 134 5.0 10.0 0.00 0.00 0.00 28 1018.7
20240226202045 73 121 4.0 10.0 0.00 0.00 0.00 28 1018.7
20240226201554 72 145 5.0 10.0 0.00 0.00 0.00 31 1018.9
20240226201049 73 155 5.0 10.0 0.00 0.00 0.00 30 1019.1
20240226200546 72 190 5.0 10.0 0.00 0.00 0.00 29 1019.1
20240226200101 72 170 4.0 12.0 0.00 0.00 0.00 27 1019.2
20240226195546 72 146 5.0 12.0 0.00 0.00 0.00 28 1019.3
20240226195046 72 173 6.0 11.0 0.00 0.00 0.00 29 1019.3
20240226194556 73 158 5.0 11.0 0.00 0.00 0.00 29 1019.3
20240226194048 73 134 5.0 12.0 0.00 0.00 0.00 30 1019.4
20240226193545 72 107 6.0 13.0 0.00 0.00 0.00 30 1019.4
20240226193059 72 170 7.0 13.0 0.00 0.00 0.00 30 1019.4
20240226192546 73 139 4.0 11.0 0.00 0.00 0.00 30 1019.5
20240226192045 72 140 4.0 12.0 0.00 0.00 0.00 30 1019.5
20240226191556 73 184 6.0 12.0 0.00 0.00 0.00 30 1019.7
20240226191046 73 138 4.0 11.0 0.00 0.00 0.00 31 1019.8
20240226190545 72 137 4.0 11.0 0.00 0.00 0.00 30 1019.8
20240226190056 72 120 4.0 13.0 0.00 0.00 0.00 32 1019.9
20240226185546 71 169 7.0 13.0 0.00 0.00 0.00 32 1020.0
20240226185042 72 169 3.0 8.0 0.00 0.00 0.00 34 1020.2
20240226184559 71 235 1.0 10.0 0.00 0.00 0.00 33 1020.3
20240226184049 71 0 5.0 10.0 0.00 0.00 0.00 32 1020.5
20240226183545 71 138 4.0 11.0 0.00 0.00 0.00 32 1020.6
20240226183054 71 161 6.0 12.0 0.00 0.00 0.00 34 1020.8
20240226182549 71 197 6.0 12.0 0.00 0.00 0.00 34 1021.0
20240226182044 71 258 4.0 13.0 0.00 0.00 0.00 35 1020.9
20240226181601 71 215 4.0 13.0 0.00 0.00 0.00 35 1021.1
20240226181044 71 174 5.0 13.0 0.00 0.00 0.00 35 1021.1
20240226180546 70 253 5.0 10.0 0.00 0.00 0.00 35 1021.2
20240226180054 71 210 6.0 12.0 0.00 0.00 0.00 34 1021.4
20240226175541 70 172 5.0 12.0 0.00 0.00 0.00 35 1021.4
20240226175042 70 201 4.0 14.0 0.00 0.00 0.00 35 1021.5
20240226174604 70 201 6.0 14.0 0.00 0.00 0.00 36 1021.6
20240226174050 70 171 3.0 11.0 0.00 0.00 0.00 37 1021.6
20240226173545 70 195 4.0 11.0 0.00 0.00 0.00 35 1021.7
20240226173052 69 158 2.0 11.0 0.00 0.00 0.00 36 1021.8
20240226172546 69 221 6.0 12.0 0.00 0.00 0.00 35 1021.9
20240226172045 69 182 5.0 12.0 0.00 0.00 0.00 37 1021.9
20240226171549 68 306 4.0 11.0 0.00 0.00 0.00 37 1022.0
20240226171045 69 177 5.0 11.0 0.00 0.00 0.00 37 1022.3
20240226170545 69 186 4.0 10.0 0.00 0.00 0.00 36 1022.3
20240226170049 68 154 5.0 10.0 0.00 0.00 0.00 36 1022.3
20240226165545 68 170 6.0 10.0 0.00 0.00 0.00 38 1022.5
20240226165045 69 190 4.0 10.0 0.00 0.00 0.00 38 1022.5
20240226164559 68 142 2.0 12.0 0.00 0.00 0.00 39 1022.5
20240226164044 68 128 5.0 12.0 0.00 0.00 0.00 39 1022.5
20240226163545 68 189 4.0 13.0 0.00 0.00 0.00 40 1022.6
20240226163057 67 202 5.0 13.0 0.00 0.00 0.00 40 1022.7
20240226162544 67 170 6.0 13.0 0.00 0.00 0.00 39 1022.8
20240226162042 67 158 5.0 11.0 0.00 0.00 0.00 40 1022.8
20240226161603 66 161 7.0 11.0 0.00 0.00 0.00 40 1022.9
20240226161042 66 180 5.0 11.0 0.00 0.00 0.00 43 1022.9
20240226160544 66 194 5.0 14.0 0.00 0.00 0.00 42 1023.0
20240226160114 66 161 6.0 14.0 0.00 0.00 0.00 42 1022.9
20240226155545 66 205 5.0 11.0 0.00 0.00 0.00 43 1022.9
20240226155045 65 186 4.0 11.0 0.00 0.00 0.00 44 1023.0
20240226154608 65 176 4.0 10.0 0.00 0.00 0.00 43 1023.0
20240226154045 65 222 3.0 10.0 0.00 0.00 0.00 47 1023.0
20240226153546 64 266 4.0 10.0 0.00 0.00 0.00 46 1023.0
20240226153048 64 176 4.0 9.0 0.00 0.00 0.00 48 1023.0
20240226152544 62 206 4.0 7.0 0.00 0.00 0.00 52 1023.0
20240226152045 62 151 4.0 8.0 0.00 0.00 0.00 53 1023.1
20240226151555 60 182 4.0 8.0 0.00 0.00 0.00 56 1023.1
20240226151045 60 190 3.0 8.0 0.00 0.00 0.00 56 1023.1
20240226150545 59 176 3.0 7.0 0.00 0.00 0.00 58 1023.1
20240226150050 59 175 3.0 7.0 0.00 0.00 0.00 60 1023.0
20240226145542 59 148 3.0 6.0 0.00 0.00 0.00 61 1023.1
20240226145042 57 136 1.0 6.0 0.00 0.00 0.00 63 1023.1
20240226144600 56 128 2.0 6.0 0.00 0.00 0.00 64 1023.1
20240226144047 56 167 3.0 6.0 0.00 0.00 0.00 65 1023.1
20240226143544 54 117 1.0 3.0 0.00 0.00 0.00 73 1023.1
20240226143104 53 132 0.0 3.0 0.00 0.00 0.00 73 1023.0
20240226142547 52 157 1.0 3.0 0.00 0.00 0.00 78 1023.0
20240226142041 51 107 1.0 3.0 0.00 0.00 0.00 78 1023.0
20240226141556 50 0 0.0 3.0 0.00 0.00 0.00 79 1022.9
20240226141042 49 83 0.0 3.0 0.00 0.00 0.00 82 1022.9
20240226140542 47 86 1.0 3.0 0.00 0.00 0.00 86 1022.8
20240226140050 46 61 1.0 3.0 0.00 0.00 0.00 86 1022.8
20240226135545 46 66 1.0 3.0 0.00 0.00 0.00 88 1022.8
20240226135048 45 73 0.0 2.0 0.00 0.00 0.00 87 1022.8
20240226134550 44 71 0.0 2.0 0.00 0.00 0.00 88 1022.7
20240226134049 43 65 0.0 2.0 0.00 0.00 0.00 89 1022.7
20240226133542 42 0 1.0 3.0 0.00 0.00 0.00 91 1022.7
20240226133052 40 40 0.0 3.0 0.00 0.00 0.00 92 1022.6
20240226132545 39 51 1.0 3.0 0.00 0.00 0.00 93 1022.5
20240226132045 39 360 1.0 2.0 0.00 0.00 0.00 93 1022.4
20240226131548 38 360 0.0 2.0 0.00 0.00 0.00 94 1022.3
20240226131042 38 0 0.0 0.0 0.00 0.00 0.00 95 1022.3
20240226130545 37 0 0.0 0.0 0.00 0.00 0.00 96 1022.2
20240226130051 36 0 0.0 0.0 0.00 0.00 0.00 96 1022.3
20240226125545 35 0 0.0 0.0 0.00 0.00 0.00 96 1022.4
20240226125045 34 0 0.0 0.0 0.00 0.00 0.00 96 1022.3
20240226124550 33 0 0.0 0.0 0.00 0.00 0.00 96 1022.3
20240226124042 33 0 0.0 0.0 0.00 0.00 0.00 96 1022.3
20240226123550 33 0 0.0 1.0 0.00 0.00 0.00 96 1022.2
20240226123050 33 0 0.0 1.0 0.00 0.00 0.00 96 1022.2
20240226122544 32 0 0.0 1.0 0.00 0.00 0.00 96 1022.2
20240226122045 32 0 0.0 1.0 0.00 0.00 0.00 96 1022.1
20240226121558 31 0 0.0 1.0 0.00 0.00 0.00 96 1022.1
20240226121041 31 0 0.0 0.0 0.00 0.00 0.00 95 1022.1
20240226120545 32 0 0.0 0.0 0.00 0.00 0.00 96 1021.9
20240226120047 32 0 0.0 0.0 0.00 0.00 0.00 96 1022.0
20240226115545 32 0 0.0 0.0 0.00 0.00 0.00 95 1021.9
20240226115045 32 0 0.0 0.0 0.00 0.00 0.00 95 1021.9
20240226114545 32 0 0.0 0.0 0.00 0.00 0.00 95 1021.8
20240226114047 32 0 0.0 0.0 0.00 0.00 0.00 96 1021.8
20240226113544 32 0 0.0 0.0 0.00 0.00 0.00 96 1021.8
20240226113044 32 0 0.0 2.0 0.00 0.00 0.00 96 1021.8
20240226112542 32 0 0.0 2.0 0.00 0.00 0.00 95 1021.9
20240226112044 33 271 0.0 2.0 0.00 0.00 0.00 96 1021.9
20240226111554 32 0 0.0 0.0 0.00 0.00 0.00 95 1021.9
20240226111044 33 0 0.0 0.0 0.00 0.00 0.00 95 1021.9
20240226110545 33 0 0.0 0.0 0.00 0.00 0.00 95 1021.9
20240226110058 33 0 0.0 0.0 0.00 0.00 0.00 95 1021.8
20240226105544 33 0 0.0 0.0 0.00 0.00 0.00 96 1021.9
20240226105043 33 0 0.0 1.0 0.00 0.00 0.00 95 1021.8
20240226104549 33 0 0.0 2.0 0.00 0.00 0.00 95 1021.8
20240226104045 33 0 0.0 2.0 0.00 0.00 0.00 95 1021.8
20240226103550 33 0 0.0 2.0 0.00 0.00 0.00 95 1021.8
20240226103052 33 0 0.0 2.0 0.00 0.00 0.00 95 1021.8
20240226102541 33 271 0.0 1.0 0.00 0.00 0.00 95 1021.7
20240226102044 33 0 0.0 1.0 0.00 0.00 0.00 95 1021.7
20240226101552 34 0 0.0 1.0 0.00 0.00 0.00 95 1021.6
20240226101048 34 271 0.0 1.0 0.00 0.00 0.00 95 1021.7
20240226100544 33 0 0.0 0.0 0.00 0.00 0.00 95 1021.6
20240226100050 34 0 0.0 1.0 0.00 0.00 0.00 95 1021.6
20240226095545 34 0 0.0 1.0 0.00 0.00 0.00 95 1021.5
20240226095045 34 0 0.0 0.0 0.00 0.00 0.00 95 1021.4
20240226094551 34 0 0.0 0.0 0.00 0.00 0.00 95 1021.3
20240226094046 34 0 0.0 0.0 0.00 0.00 0.00 95 1021.4
20240226093545 34 0 0.0 0.0 0.00 0.00 0.00 95 1021.3
20240226093055 34 0 0.0 0.0 0.00 0.00 0.00 95 1021.1
20240226092543 34 0 0.0 0.0 0.00 0.00 0.00 95 1021.3
20240226092042 34 0 0.0 0.0 0.00 0.00 0.00 95 1021.3
20240226091551 34 0 0.0 0.0 0.00 0.00 0.00 95 1021.4
20240226091046 34 0 0.0 0.0 0.00 0.00 0.00 95 1021.5
20240226090541 34 0 0.0 0.0 0.00 0.00 0.00 95 1021.5
20240226090057 34 0 0.0 0.0 0.00 0.00 0.00 95 1021.4
20240226085545 34 0 0.0 0.0 0.00 0.00 0.00 95 1021.5
20240226085048 34 0 0.0 0.0 0.00 0.00 0.00 94 1021.5
20240226084556 34 0 0.0 0.0 0.00 0.00 0.00 95 1021.5
20240226084046 34 0 0.0 0.0 0.00 0.00 0.00 95 1021.5
20240226083545 34 0 0.0 0.0 0.00 0.00 0.00 95 1021.6
20240226083054 34 0 0.0 0.0 0.00 0.00 0.00 95 1021.6
20240226082545 34 0 0.0 0.0 0.00 0.00 0.00 94 1021.6
20240226082045 34 0 0.0 0.0 0.00 0.00 0.00 95 1021.6
20240226081555 34 0 0.0 0.0 0.00 0.00 0.00 95 1021.7
20240226081050 34 0 0.0 0.0 0.00 0.00 0.00 95 1021.8
20240226080542 34 0 0.0 0.0 0.00 0.00 0.00 95 1021.6
20240226080054 34 0 0.0 0.0 0.00 0.00 0.00 94 1021.7
20240226075545 34 0 0.0 0.0 0.00 0.00 0.00 94 1021.8
20240226075041 34 0 0.0 0.0 0.00 0.00 0.00 94 1021.8
20240226074607 35 0 0.0 0.0 0.00 0.00 0.00 94 1021.9
20240226074041 35 0 0.0 0.0 0.00 0.00 0.00 94 1022.0
20240226073545 35 0 0.0 0.0 0.00 0.00 0.00 94 1022.1
20240226073053 35 0 0.0 0.0 0.00 0.00 0.00 94 1022.0
20240226072544 35 0 0.0 1.0 0.00 0.00 0.00 94 1022.0
20240226072041 35 0 0.0 2.0 0.00 0.00 0.00 94 1022.0
20240226071602 35 0 0.0 2.0 0.00 0.00 0.00 94 1022.1
20240226071045 35 271 1.0 2.0 0.00 0.00 0.00 94 1022.1
20240226070545 35 0 0.0 0.0 0.00 0.00 0.00 94 1022.1
20240226070105 35 0 0.0 2.0 0.00 0.00 0.00 94 1022.2
20240226065542 35 0 0.0 2.0 0.00 0.00 0.00 94 1022.2
20240226065045 35 0 0.0 2.0 0.00 0.00 0.00 94 1022.2
20240226064554 35 236 0.0 0.0 0.00 0.00 0.00 93 1022.2
20240226064045 35 0 0.0 0.0 0.00 0.00 0.00 94 1022.2
20240226063546 36 0 0.0 0.0 0.00 0.00 0.00 93 1022.1
20240226063055 35 0 0.0 0.0 0.00 0.00 0.00 93 1022.1
20240226062543 36 0 0.0 0.0 0.00 0.00 0.00 93 1022.0
20240226062044 36 0 0.0 0.0 0.00 0.00 0.00 93 1021.9
20240226061551 36 0 0.0 0.0 0.00 0.00 0.00 93 1021.8
20240226061042 36 0 0.0 0.0 0.00 0.00 0.00 93 1021.7
20240226060547 36 0 0.0 0.0 0.00 0.00 0.00 93 1021.7
20240226060100 36 0 0.0 0.0 0.00 0.00 0.00 93 1021.7
20240226055541 36 0 0.0 0.0 0.00 0.00 0.00 93 1021.8
20240226055041 36 0 0.0 0.0 0.00 0.00 0.00 93 1021.8
20240226054549 36 0 0.0 0.0 0.00 0.00 0.00 92 1021.8
20240226054041 36 0 0.0 0.0 0.00 0.00 0.00 92 1021.8
20240226053542 37 0 0.0 0.0 0.00 0.00 0.00 92 1021.7
20240226053052 37 0 0.0 0.0 0.00 0.00 0.00 92 1021.7
20240226052545 37 0 0.0 0.0 0.00 0.00 0.00 92 1021.8
20240226052043 37 0 0.0 0.0 0.00 0.00 0.00 92 1021.8
20240226051551 37 0 0.0 0.0 0.00 0.00 0.00 91 1021.8
20240226051049 37 0 0.0 0.0 0.00 0.00 0.00 91 1021.8
20240226050545 37 0 0.0 0.0 0.00 0.00 0.00 91 1021.8
20240226050057 37 0 0.0 0.0 0.00 0.00 0.00 90 1021.9
20240226045547 37 0 0.0 0.0 0.00 0.00 0.00 91 1021.9
20240226045042 37 0 0.0 1.0 0.00 0.00 0.00 90 1022.0